PWSweather.com
Personal Weather Stations
Station Observations
SEVNO44
Sevno, PrimskovoSI 1276

SevnoPrimskovoSI 1276

Lat: 45.9796285, Lon: 14.924044999999978

Elevation: 1706.0368

Station Type: WS-2307

www.primskovo.eu/vreme

High Low Average
Temperature 69.4°F20.8°C 55.2°F12.9°C 60.2°F15.7°C
Dew Point 63.4°F17.4°C 52.5°F11.4°C 56.2°F13.4°C
Winds 11.1 mph 17.9 kmh Calm Calm 2.0 mph S3.2 kmh S
Wind Gusts 14.5 mph23.3 kmh -- 3.0 mph4.8 kmh
Humidity 92% 79% 87%
Pressure 30.09 in1019.0 mb 29.86 in1011.2 mb -
Precipitation 0.00 in0.0 mm - -
Hour Temp Dew Point Humidity Winds Wind Gusts Pressure Precip Precip Rate Daily Precip Total
12:00 AM 55.4°F13.0°C 52.5°F11.4°C 90% 1.0 mph E1.6 kmh E 1.6 mph2.6 kmh 30.09 in1019.0 mb 0.00 in0.0 mm 0.00 in0.0 mm 0.00 in0.0 mm
12:05 AM 55.6°F13.1°C 52.7°F11.5°C 90% 0.9 mph E1.4 kmh E 1.8 mph2.9 kmh 30.08 in1018.6 mb 0.00 in0.0 mm 0.00 in0.0 mm 0.00 in0.0 mm
12:10 AM 55.6°F13.1°C 52.7°F11.5°C 90% 1.0 mph NE1.6 kmh NE 1.8 mph2.9 kmh 30.09 in1019.0 mb 0.00 in0.0 mm 0.00 in0.0 mm 0.00 in0.0 mm
12:15 AM 55.6°F13.1°C 52.7°F11.5°C 90% 1.0 mph NE1.6 kmh NE 1.8 mph2.9 kmh 30.08 in1018.6 mb 0.00 in0.0 mm 0.00 in0.0 mm 0.00 in0.0 mm
12:20 AM 55.6°F13.1°C 52.7°F11.5°C 90% 1.3 mph SE2.1 kmh SE 1.8 mph2.9 kmh 30.08 in1018.6 mb 0.00 in0.0 mm 0.00 in0.0 mm 0.00 in0.0 mm
12:25 AM 55.6°F13.1°C 52.7°F11.5°C 90% 1.8 mph SE2.9 kmh SE 1.8 mph2.9 kmh 30.08 in1018.6 mb 0.00 in0.0 mm 0.00 in0.0 mm 0.00 in0.0 mm
12:30 AM 55.8°F13.2°C 52.9°F11.6°C 90% 1.4 mph SE2.3 kmh SE 1.8 mph2.9 kmh 30.08 in1018.6 mb 0.00 in0.0 mm 0.00 in0.0 mm 0.00 in0.0 mm
12:35 AM 55.6°F13.1°C 52.7°F11.5°C 90% 1.2 mph N1.9 kmh N 2.5 mph4.0 kmh 30.08 in1018.6 mb 0.00 in0.0 mm 0.00 in0.0 mm 0.00 in0.0 mm
12:40 AM 55.6°F13.1°C 52.7°F11.5°C 90% 1.6 mph N2.6 kmh N 2.5 mph4.0 kmh 30.08 in1018.6 mb 0.00 in0.0 mm 0.00 in0.0 mm 0.00 in0.0 mm
12:45 AM 55.6°F13.1°C 52.7°F11.5°C 90% 1.0 mph N1.6 kmh N 2.5 mph4.0 kmh 30.08 in1018.6 mb 0.00 in0.0 mm 0.00 in0.0 mm 0.00 in0.0 mm
12:50 AM 55.6°F13.1°C 52.7°F11.5°C 90% Calm Calm -- 30.08 in1018.6 mb 0.00 in0.0 mm 0.00 in0.0 mm 0.00 in0.0 mm
12:55 AM 55.6°F13.1°C 52.7°F11.5°C 90% Calm Calm -- 30.08 in1018.6 mb 0.00 in0.0 mm 0.00 in0.0 mm 0.00 in0.0 mm
01:00 AM 55.6°F13.1°C 52.7°F11.5°C 90% Calm Calm -- 30.08 in1018.6 mb 0.00 in0.0 mm 0.00 in0.0 mm 0.00 in0.0 mm
01:05 AM 55.6°F13.1°C 52.7°F11.5°C 90% 0.2 mph NNW0.3 kmh NNW 0.9 mph1.4 kmh 30.08 in1018.6 mb 0.00 in0.0 mm 0.00 in0.0 mm 0.00 in0.0 mm
01:10 AM 55.6°F13.1°C 52.7°F11.5°C 90% 0.4 mph NNW0.6 kmh NNW 0.9 mph1.4 kmh 30.08 in1018.6 mb 0.00 in0.0 mm 0.00 in0.0 mm 0.00 in0.0 mm
01:15 AM 55.6°F13.1°C 52.7°F11.5°C 90% 1.0 mph NE1.6 kmh NE 2.0 mph3.2 kmh 30.08 in1018.6 mb 0.00 in0.0 mm 0.00 in0.0 mm 0.00 in0.0 mm
01:20 AM 55.6°F13.1°C 52.7°F11.5°C 90% 1.8 mph NE2.9 kmh NE 2.0 mph3.2 kmh 30.07 in1018.3 mb 0.00 in0.0 mm 0.00 in0.0 mm 0.00 in0.0 mm
01:25 AM 55.6°F13.1°C 52.7°F11.5°C 90% 1.4 mph NE2.3 kmh NE 2.0 mph3.2 kmh 30.08 in1018.6 mb 0.00 in0.0 mm 0.00 in0.0 mm 0.00 in0.0 mm
01:30 AM 55.6°F13.1°C 52.7°F11.5°C 90% 0.4 mph NE0.6 kmh NE 2.0 mph3.2 kmh 30.07 in1018.3 mb 0.00 in0.0 mm 0.00 in0.0 mm 0.00 in0.0 mm
01:35 AM 55.6°F13.1°C 52.7°F11.5°C 90% 0.1 mph E0.2 kmh E 2.2 mph3.5 kmh 30.07 in1018.3 mb 0.00 in0.0 mm 0.00 in0.0 mm 0.00 in0.0 mm
01:40 AM 55.6°F13.1°C 52.7°F11.5°C 90% 0.5 mph E0.8 kmh E 2.2 mph3.5 kmh 30.07 in1018.3 mb 0.00 in0.0 mm 0.00 in0.0 mm 0.00 in0.0 mm
01:45 AM 55.6°F13.1°C 52.7°F11.5°C 90% 0.4 mph E0.6 kmh E 2.2 mph3.5 kmh 30.07 in1018.3 mb 0.00 in0.0 mm 0.00 in0.0 mm 0.00 in0.0 mm
01:50 AM 55.4°F13.0°C 52.5°F11.4°C 90% Calm Calm -- 30.07 in1018.3 mb 0.00 in0.0 mm 0.00 in0.0 mm 0.00 in0.0 mm
01:55 AM 55.6°F13.1°C 52.7°F11.5°C 90% Calm Calm -- 30.07 in1018.3 mb 0.00 in0.0 mm 0.00 in0.0 mm 0.00 in0.0 mm
02:00 AM 55.6°F13.1°C 52.7°F11.5°C 90% Calm Calm -- 30.07 in1018.3 mb 0.00 in0.0 mm 0.00 in0.0 mm 0.00 in0.0 mm
02:05 AM 55.6°F13.1°C 52.7°F11.5°C 90% Calm Calm -- 30.07 in1018.3 mb 0.00 in0.0 mm 0.00 in0.0 mm 0.00 in0.0 mm
02:10 AM 55.6°F13.1°C 52.7°F11.5°C 90% Calm Calm -- 30.07 in1018.3 mb 0.00 in0.0 mm 0.00 in0.0 mm 0.00 in0.0 mm
02:15 AM 55.6°F13.1°C 52.7°F11.5°C 90% 0.2 mph NNW0.3 kmh NNW 1.3 mph2.1 kmh 30.06 in1017.9 mb 0.00 in0.0 mm 0.00 in0.0 mm 0.00 in0.0 mm
02:20 AM 55.4°F13.0°C 52.5°F11.4°C 90% 0.3 mph NNW0.5 kmh NNW 1.3 mph2.1 kmh 30.06 in1017.9 mb 0.00 in0.0 mm 0.00 in0.0 mm 0.00 in0.0 mm
02:25 AM 55.6°F13.1°C 52.7°F11.5°C 90% 0.1 mph NNW0.2 kmh NNW 1.3 mph2.1 kmh 30.06 in1017.9 mb 0.00 in0.0 mm 0.00 in0.0 mm 0.00 in0.0 mm
02:30 AM 55.6°F13.1°C 52.7°F11.5°C 90% 0.2 mph N0.3 kmh N 0.9 mph1.4 kmh 30.06 in1017.9 mb 0.00 in0.0 mm 0.00 in0.0 mm 0.00 in0.0 mm
02:35 AM 55.6°F13.1°C 52.7°F11.5°C 90% 0.9 mph NNE1.4 kmh NNE 2.0 mph3.2 kmh 30.06 in1017.9 mb 0.00 in0.0 mm 0.00 in0.0 mm 0.00 in0.0 mm
02:40 AM 55.4°F13.0°C 52.5°F11.4°C 90% 1.5 mph N2.4 kmh N 2.0 mph3.2 kmh 30.06 in1017.9 mb 0.00 in0.0 mm 0.00 in0.0 mm 0.00 in0.0 mm
02:45 AM 55.4°F13.0°C 52.5°F11.4°C 90% 1.1 mph NNW1.8 kmh NNW 2.0 mph3.2 kmh 30.06 in1017.9 mb 0.00 in0.0 mm 0.00 in0.0 mm 0.00 in0.0 mm
02:50 AM 55.4°F13.0°C 52.5°F11.4°C 90% 0.3 mph NW0.5 kmh NW 1.6 mph2.6 kmh 30.06 in1017.9 mb 0.00 in0.0 mm 0.00 in0.0 mm 0.00 in0.0 mm
02:55 AM 55.4°F13.0°C 52.5°F11.4°C 90% Calm Calm -- 30.06 in1017.9 mb 0.00 in0.0 mm 0.00 in0.0 mm 0.00 in0.0 mm
03:00 AM 55.4°F13.0°C 52.5°F11.4°C 90% 0.2 mph SE0.3 kmh SE 0.9 mph1.4 kmh 30.06 in1017.9 mb 0.00 in0.0 mm 0.00 in0.0 mm 0.00 in0.0 mm
03:05 AM 55.4°F13.0°C 52.8°F11.6°C 91% 0.6 mph S1.0 kmh S 2.0 mph3.2 kmh 30.06 in1017.9 mb 0.00 in0.0 mm 0.00 in0.0 mm 0.00 in0.0 mm
03:10 AM 55.4°F13.0°C 52.8°F11.6°C 91% 0.4 mph S0.6 kmh S 2.0 mph3.2 kmh 30.06 in1017.9 mb 0.00 in0.0 mm 0.00 in0.0 mm 0.00 in0.0 mm
03:15 AM 55.4°F13.0°C 52.8°F11.6°C 91% 0.2 mph SW0.3 kmh SW 1.3 mph2.1 kmh 30.06 in1017.9 mb 0.00 in0.0 mm 0.00 in0.0 mm 0.00 in0.0 mm
03:20 AM 55.4°F13.0°C 52.8°F11.6°C 91% 0.3 mph SW0.5 kmh SW 1.3 mph2.1 kmh 30.06 in1017.9 mb 0.00 in0.0 mm 0.00 in0.0 mm 0.00 in0.0 mm
03:25 AM 55.4°F13.0°C 52.8°F11.6°C 91% 0.1 mph SW0.2 kmh SW 1.3 mph2.1 kmh 30.06 in1017.9 mb 0.00 in0.0 mm 0.00 in0.0 mm 0.00 in0.0 mm
03:30 AM 55.2°F12.9°C 52.6°F11.4°C 91% Calm Calm -- 30.05 in1017.6 mb 0.00 in0.0 mm 0.00 in0.0 mm 0.00 in0.0 mm
03:35 AM 55.2°F12.9°C 52.6°F11.4°C 91% Calm Calm -- 30.05 in1017.6 mb 0.00 in0.0 mm 0.00 in0.0 mm 0.00 in0.0 mm
03:40 AM 55.2°F12.9°C 52.6°F11.4°C 91% Calm Calm -- 30.05 in1017.6 mb 0.00 in0.0 mm 0.00 in0.0 mm 0.00 in0.0 mm
03:45 AM 55.2°F12.9°C 52.6°F11.4°C 91% Calm Calm -- 30.05 in1017.6 mb 0.00 in0.0 mm 0.00 in0.0 mm 0.00 in0.0 mm
03:50 AM 55.2°F12.9°C 52.6°F11.4°C 91% Calm Calm -- 30.05 in1017.6 mb 0.00 in0.0 mm 0.00 in0.0 mm 0.00 in0.0 mm
03:55 AM 55.2°F12.9°C 52.6°F11.4°C 91% Calm Calm -- 30.05 in1017.6 mb 0.00 in0.0 mm 0.00 in0.0 mm 0.00 in0.0 mm
04:00 AM 55.2°F12.9°C 52.6°F11.4°C 91% Calm Calm -- 30.06 in1017.9 mb 0.00 in0.0 mm 0.00 in0.0 mm 0.00 in0.0 mm
04:05 AM 55.2°F12.9°C 52.6°F11.4°C 91% Calm Calm -- 30.06 in1017.9 mb 0.00 in0.0 mm 0.00 in0.0 mm 0.00 in0.0 mm
04:10 AM 55.2°F12.9°C 52.6°F11.4°C 91% 0.1 mph W0.2 kmh W 1.1 mph1.8 kmh 30.06 in1017.9 mb 0.00 in0.0 mm 0.00 in0.0 mm 0.00 in0.0 mm
04:15 AM 55.2°F12.9°C 52.6°F11.4°C 91% 0.2 mph W0.3 kmh W 1.1 mph1.8 kmh 30.06 in1017.9 mb 0.00 in0.0 mm 0.00 in0.0 mm 0.00 in0.0 mm
04:20 AM 55.2°F12.9°C 52.6°F11.4°C 91% 0.1 mph W0.2 kmh W 1.1 mph1.8 kmh 30.06 in1017.9 mb 0.00 in0.0 mm 0.00 in0.0 mm 0.00 in0.0 mm
04:25 AM 55.2°F12.9°C 52.6°F11.4°C 91% Calm Calm -- 30.06 in1017.9 mb 0.00 in0.0 mm 0.00 in0.0 mm 0.00 in0.0 mm
04:30 AM 55.2°F12.9°C 52.6°F11.4°C 91% Calm Calm -- 30.05 in1017.6 mb 0.00 in0.0 mm 0.00 in0.0 mm 0.00 in0.0 mm
04:35 AM 55.2°F12.9°C 52.6°F11.4°C 91% Calm Calm -- 30.05 in1017.6 mb 0.00 in0.0 mm 0.00 in0.0 mm 0.00 in0.0 mm
04:40 AM 55.2°F12.9°C 52.6°F11.4°C 91% Calm Calm -- 30.05 in1017.6 mb 0.00 in0.0 mm 0.00 in0.0 mm 0.00 in0.0 mm
04:45 AM 55.2°F12.9°C 52.6°F11.4°C 91% Calm Calm -- 30.05 in1017.6 mb 0.00 in0.0 mm 0.00 in0.0 mm 0.00 in0.0 mm
04:50 AM 55.2°F12.9°C 52.6°F11.4°C 91% Calm Calm -- 30.05 in1017.6 mb 0.00 in0.0 mm 0.00 in0.0 mm 0.00 in0.0 mm
04:55 AM 55.2°F12.9°C 52.6°F11.4°C 91% Calm Calm -- 30.05 in1017.6 mb 0.00 in0.0 mm 0.00 in0.0 mm 0.00 in0.0 mm
05:00 AM 55.2°F12.9°C 52.6°F11.4°C 91% Calm Calm -- 30.05 in1017.6 mb 0.00 in0.0 mm 0.00 in0.0 mm 0.00 in0.0 mm
05:05 AM 55.2°F12.9°C 52.6°F11.4°C 91% Calm Calm -- 30.05 in1017.6 mb 0.00 in0.0 mm 0.00 in0.0 mm 0.00 in0.0 mm
05:10 AM 55.2°F12.9°C 52.6°F11.4°C 91% Calm Calm -- 30.05 in1017.6 mb 0.00 in0.0 mm 0.00 in0.0 mm 0.00 in0.0 mm
05:15 AM 55.2°F12.9°C 52.6°F11.4°C 91% Calm Calm -- 30.05 in1017.6 mb 0.00 in0.0 mm 0.00 in0.0 mm 0.00 in0.0 mm
05:20 AM 55.2°F12.9°C 52.6°F11.4°C 91% Calm Calm -- 30.05 in1017.6 mb 0.00 in0.0 mm 0.00 in0.0 mm 0.00 in0.0 mm
05:25 AM 55.2°F12.9°C 52.6°F11.4°C 91% Calm Calm -- 30.05 in1017.6 mb 0.00 in0.0 mm 0.00 in0.0 mm 0.00 in0.0 mm
05:30 AM 55.2°F12.9°C 52.6°F11.4°C 91% Calm Calm -- 30.05 in1017.6 mb 0.00 in0.0 mm 0.00 in0.0 mm 0.00 in0.0 mm
05:35 AM 55.2°F12.9°C 52.6°F11.4°C 91% 0.4 mph ESE0.6 kmh ESE 1.6 mph2.6 kmh 30.05 in1017.6 mb 0.00 in0.0 mm 0.00 in0.0 mm 0.00 in0.0 mm
05:40 AM 55.2°F12.9°C 52.6°F11.4°C 91% 0.9 mph SE1.4 kmh SE 1.6 mph2.6 kmh 30.04 in1017.3 mb 0.00 in0.0 mm 0.00 in0.0 mm 0.00 in0.0 mm
05:45 AM 55.2°F12.9°C 52.6°F11.4°C 91% 0.4 mph SE0.6 kmh SE 1.6 mph2.6 kmh 30.04 in1017.3 mb 0.00 in0.0 mm 0.00 in0.0 mm 0.00 in0.0 mm
05:50 AM 55.2°F12.9°C 52.6°F11.4°C 91% Calm Calm -- 30.04 in1017.3 mb 0.00 in0.0 mm 0.00 in0.0 mm 0.00 in0.0 mm
05:55 AM 55.2°F12.9°C 52.6°F11.4°C 91% Calm Calm -- 30.05 in1017.6 mb 0.00 in0.0 mm 0.00 in0.0 mm 0.00 in0.0 mm
06:00 AM 55.2°F12.9°C 52.6°F11.4°C 91% Calm Calm -- 30.05 in1017.6 mb 0.00 in0.0 mm 0.00 in0.0 mm 0.00 in0.0 mm
06:05 AM 55.2°F12.9°C 52.6°F11.4°C 91% Calm Calm -- 30.04 in1017.3 mb 0.00 in0.0 mm 0.00 in0.0 mm 0.00 in0.0 mm
06:10 AM 55.2°F12.9°C 52.6°F11.4°C 91% 0.4 mph SSE0.6 kmh SSE 1.8 mph2.9 kmh 30.04 in1017.3 mb 0.00 in0.0 mm 0.00 in0.0 mm 0.00 in0.0 mm
06:15 AM 55.2°F12.9°C 52.6°F11.4°C 91% 1.3 mph SSE2.1 kmh SSE 1.8 mph2.9 kmh 30.05 in1017.6 mb 0.00 in0.0 mm 0.00 in0.0 mm 0.00 in0.0 mm
06:20 AM 55.2°F12.9°C 52.6°F11.4°C 91% 1.3 mph SSE2.1 kmh SSE 1.8 mph2.9 kmh 30.05 in1017.6 mb 0.00 in0.0 mm 0.00 in0.0 mm 0.00 in0.0 mm
06:25 AM 55.2°F12.9°C 52.6°F11.4°C 91% 0.5 mph SSE0.8 kmh SSE 1.8 mph2.9 kmh 30.05 in1017.6 mb 0.00 in0.0 mm 0.00 in0.0 mm 0.00 in0.0 mm
06:30 AM 55.2°F12.9°C 52.6°F11.4°C 91% Calm Calm -- 30.05 in1017.6 mb 0.00 in0.0 mm 0.00 in0.0 mm 0.00 in0.0 mm
06:35 AM 55.2°F12.9°C 52.6°F11.4°C 91% Calm Calm -- 30.05 in1017.6 mb 0.00 in0.0 mm 0.00 in0.0 mm 0.00 in0.0 mm
06:40 AM 55.2°F12.9°C 52.6°F11.4°C 91% Calm Calm -- 30.04 in1017.3 mb 0.00 in0.0 mm 0.00 in0.0 mm 0.00 in0.0 mm
06:45 AM 55.2°F12.9°C 52.6°F11.4°C 91% 0.5 mph SSE0.8 kmh SSE 1.1 mph1.8 kmh 30.05 in1017.6 mb 0.00 in0.0 mm 0.00 in0.0 mm 0.00 in0.0 mm
06:50 AM 55.2°F12.9°C 52.6°F11.4°C 91% 1.2 mph SSE1.9 kmh SSE 2.0 mph3.2 kmh 30.05 in1017.6 mb 0.00 in0.0 mm 0.00 in0.0 mm 0.00 in0.0 mm
06:55 AM 55.2°F12.9°C 52.6°F11.4°C 91% 1.5 mph SE2.4 kmh SE 2.2 mph3.5 kmh 30.05 in1017.6 mb 0.00 in0.0 mm 0.00 in0.0 mm 0.00 in0.0 mm
07:00 AM 55.2°F12.9°C 52.6°F11.4°C 91% 1.4 mph SE2.3 kmh SE 2.5 mph4.0 kmh 30.04 in1017.3 mb 0.00 in0.0 mm 0.00 in0.0 mm 0.00 in0.0 mm
07:05 AM 55.2°F12.9°C 52.6°F11.4°C 91% 1.1 mph SE1.8 kmh SE 2.5 mph4.0 kmh 30.04 in1017.3 mb 0.00 in0.0 mm 0.00 in0.0 mm 0.00 in0.0 mm
07:10 AM 55.2°F12.9°C 52.6°F11.4°C 91% 0.4 mph E0.6 kmh E 1.8 mph2.9 kmh 30.05 in1017.6 mb 0.00 in0.0 mm 0.00 in0.0 mm 0.00 in0.0 mm
07:15 AM 55.4°F13.0°C 52.8°F11.6°C 91% Calm Calm -- 30.05 in1017.6 mb 0.00 in0.0 mm 0.00 in0.0 mm 0.00 in0.0 mm
07:20 AM 55.4°F13.0°C 53.1°F11.7°C 92% Calm Calm -- 30.05 in1017.6 mb 0.00 in0.0 mm 0.00 in0.0 mm 0.00 in0.0 mm
07:25 AM 55.6°F13.1°C 53.3°F11.8°C 92% 0.3 mph ESE0.5 kmh ESE 2.0 mph3.2 kmh 30.05 in1017.6 mb 0.00 in0.0 mm 0.00 in0.0 mm 0.00 in0.0 mm
07:30 AM 55.6°F13.1°C 53.0°F11.7°C 91% 0.7 mph SE1.1 kmh SE 2.0 mph3.2 kmh 30.05 in1017.6 mb 0.00 in0.0 mm 0.00 in0.0 mm 0.00 in0.0 mm
07:35 AM 55.6°F13.1°C 53.3°F11.8°C 92% 0.9 mph SE1.4 kmh SE 2.0 mph3.2 kmh 30.05 in1017.6 mb 0.00 in0.0 mm 0.00 in0.0 mm 0.00 in0.0 mm
07:40 AM 55.6°F13.1°C 53.0°F11.7°C 91% 0.8 mph SSE1.3 kmh SSE 1.3 mph2.1 kmh 30.05 in1017.6 mb 0.00 in0.0 mm 0.00 in0.0 mm 0.00 in0.0 mm
07:45 AM 55.6°F13.1°C 53.0°F11.7°C 91% 0.3 mph SSE0.5 kmh SSE 1.3 mph2.1 kmh 30.05 in1017.6 mb 0.00 in0.0 mm 0.00 in0.0 mm 0.00 in0.0 mm
07:50 AM 55.8°F13.2°C 53.2°F11.8°C 91% Calm Calm -- 30.05 in1017.6 mb 0.00 in0.0 mm 0.00 in0.0 mm 0.00 in0.0 mm
07:55 AM 55.8°F13.2°C 53.2°F11.8°C 91% Calm Calm -- 30.05 in1017.6 mb 0.00 in0.0 mm 0.00 in0.0 mm 0.00 in0.0 mm
08:00 AM 55.8°F13.2°C 53.2°F11.8°C 91% Calm Calm -- 30.05 in1017.6 mb 0.00 in0.0 mm 0.00 in0.0 mm 0.00 in0.0 mm
08:05 AM 55.9°F13.3°C 53.4°F11.9°C 91% Calm Calm -- 30.06 in1017.9 mb 0.00 in0.0 mm 0.00 in0.0 mm 0.00 in0.0 mm
08:10 AM 55.9°F13.3°C 53.4°F11.9°C 91% 0.3 mph S0.5 kmh S 2.2 mph3.5 kmh 30.06 in1017.9 mb 0.00 in0.0 mm 0.00 in0.0 mm 0.00 in0.0 mm
08:15 AM 55.9°F13.3°C 53.4°F11.9°C 91% 0.9 mph SSE1.4 kmh SSE 2.2 mph3.5 kmh 30.06 in1017.9 mb 0.00 in0.0 mm 0.00 in0.0 mm 0.00 in0.0 mm
08:20 AM 56.1°F13.4°C 53.5°F11.9°C 91% 0.6 mph SE1.0 kmh SE 2.2 mph3.5 kmh 30.06 in1017.9 mb 0.00 in0.0 mm 0.00 in0.0 mm 0.00 in0.0 mm
08:25 AM 56.1°F13.4°C 53.5°F11.9°C 91% Calm Calm -- 30.06 in1017.9 mb 0.00 in0.0 mm 0.00 in0.0 mm 0.00 in0.0 mm
08:30 AM 56.1°F13.4°C 53.5°F11.9°C 91% Calm Calm -- 30.06 in1017.9 mb 0.00 in0.0 mm 0.00 in0.0 mm 0.00 in0.0 mm
08:35 AM 56.1°F13.4°C 53.5°F11.9°C 91% 0.8 mph S1.3 kmh S 2.0 mph3.2 kmh 30.06 in1017.9 mb 0.00 in0.0 mm 0.00 in0.0 mm 0.00 in0.0 mm
08:40 AM 56.1°F13.4°C 53.5°F11.9°C 91% 0.8 mph S1.3 kmh S 2.0 mph3.2 kmh 30.06 in1017.9 mb 0.00 in0.0 mm 0.00 in0.0 mm 0.00 in0.0 mm
08:45 AM 56.1°F13.4°C 53.5°F11.9°C 91% 0.2 mph SSE0.3 kmh SSE 1.1 mph1.8 kmh 30.06 in1017.9 mb 0.00 in0.0 mm 0.00 in0.0 mm 0.00 in0.0 mm
08:50 AM 56.1°F13.4°C 53.5°F11.9°C 91% 0.2 mph SSE0.3 kmh SSE 1.1 mph1.8 kmh 30.06 in1017.9 mb 0.00 in0.0 mm 0.00 in0.0 mm 0.00 in0.0 mm
08:55 AM 56.1°F13.4°C 53.5°F11.9°C 91% Calm Calm -- 30.06 in1017.9 mb 0.00 in0.0 mm 0.00 in0.0 mm 0.00 in0.0 mm
09:00 AM 56.1°F13.4°C 53.5°F11.9°C 91% Calm Calm -- 30.06 in1017.9 mb 0.00 in0.0 mm 0.00 in0.0 mm 0.00 in0.0 mm
09:05 AM 56.1°F13.4°C 53.5°F11.9°C 91% Calm Calm -- 30.06 in1017.9 mb 0.00 in0.0 mm 0.00 in0.0 mm 0.00 in0.0 mm
09:10 AM 56.1°F13.4°C 53.5°F11.9°C 91% Calm Calm -- 30.06 in1017.9 mb 0.00 in0.0 mm 0.00 in0.0 mm 0.00 in0.0 mm
09:15 AM 56.3°F13.5°C 53.7°F12.1°C 91% Calm Calm -- 30.06 in1017.9 mb 0.00 in0.0 mm 0.00 in0.0 mm 0.00 in0.0 mm
09:20 AM 56.3°F13.5°C 53.7°F12.1°C 91% 0.1 mph S0.2 kmh S 0.9 mph1.4 kmh 30.05 in1017.6 mb 0.00 in0.0 mm 0.00 in0.0 mm 0.00 in0.0 mm
09:25 AM 56.5°F13.6°C 53.9°F12.2°C 91% 0.5 mph S0.8 kmh S 0.9 mph1.4 kmh 30.05 in1017.6 mb 0.00 in0.0 mm 0.00 in0.0 mm 0.00 in0.0 mm
09:30 AM 56.5°F13.6°C 53.9°F12.2°C 91% 0.7 mph S1.1 kmh S 1.1 mph1.8 kmh 30.05 in1017.6 mb 0.00 in0.0 mm 0.00 in0.0 mm 0.00 in0.0 mm
09:35 AM 56.5°F13.6°C 53.9°F12.2°C 91% 0.3 mph SSW0.5 kmh SSW 1.1 mph1.8 kmh 30.05 in1017.6 mb 0.00 in0.0 mm 0.00 in0.0 mm 0.00 in0.0 mm
09:40 AM 56.8°F13.8°C 54.2°F12.3°C 91% 0.3 mph SW0.5 kmh SW 1.6 mph2.6 kmh 30.05 in1017.6 mb 0.00 in0.0 mm 0.00 in0.0 mm 0.00 in0.0 mm
09:45 AM 56.8°F13.8°C 54.2°F12.3°C 91% 0.3 mph SW0.5 kmh SW 1.6 mph2.6 kmh 30.05 in1017.6 mb 0.00 in0.0 mm 0.00 in0.0 mm 0.00 in0.0 mm
09:50 AM 56.8°F13.8°C 54.2°F12.3°C 91% 0.4 mph S0.6 kmh S 2.0 mph3.2 kmh 30.05 in1017.6 mb 0.00 in0.0 mm 0.00 in0.0 mm 0.00 in0.0 mm
09:55 AM 57.0°F13.9°C 54.4°F12.4°C 91% 1.1 mph S1.8 kmh S 2.0 mph3.2 kmh 30.05 in1017.6 mb 0.00 in0.0 mm 0.00 in0.0 mm 0.00 in0.0 mm
10:00 AM 57.0°F13.9°C 54.4°F12.4°C 91% 1.5 mph S2.4 kmh S 2.0 mph3.2 kmh 30.05 in1017.6 mb 0.00 in0.0 mm 0.00 in0.0 mm 0.00 in0.0 mm
10:05 AM 57.0°F13.9°C 54.4°F12.4°C 91% 1.8 mph S2.9 kmh S 2.0 mph3.2 kmh 30.04 in1017.3 mb 0.00 in0.0 mm 0.00 in0.0 mm 0.00 in0.0 mm
10:10 AM 57.0°F13.9°C 54.4°F12.4°C 91% 1.2 mph S1.9 kmh S 2.0 mph3.2 kmh 30.05 in1017.6 mb 0.00 in0.0 mm 0.00 in0.0 mm 0.00 in0.0 mm
10:15 AM 57.4°F14.1°C 54.8°F12.7°C 91% 0.7 mph SSW1.1 kmh SSW 2.5 mph4.0 kmh 30.05 in1017.6 mb 0.00 in0.0 mm 0.00 in0.0 mm 0.00 in0.0 mm
10:20 AM 57.4°F14.1°C 54.8°F12.7°C 91% 1.0 mph SSW1.6 kmh SSW 2.5 mph4.0 kmh 30.04 in1017.3 mb 0.00 in0.0 mm 0.00 in0.0 mm 0.00 in0.0 mm
10:25 AM 57.4°F14.1°C 54.8°F12.7°C 91% 0.6 mph SSW1.0 kmh SSW 2.5 mph4.0 kmh 30.04 in1017.3 mb 0.00 in0.0 mm 0.00 in0.0 mm 0.00 in0.0 mm
10:30 AM 57.4°F14.1°C 54.8°F12.7°C 91% 0.5 mph SW0.8 kmh SW 1.8 mph2.9 kmh 30.04 in1017.3 mb 0.00 in0.0 mm 0.00 in0.0 mm 0.00 in0.0 mm
10:35 AM 57.4°F14.1°C 54.8°F12.7°C 91% 1.1 mph SW1.8 kmh SW 1.8 mph2.9 kmh 30.04 in1017.3 mb 0.00 in0.0 mm 0.00 in0.0 mm 0.00 in0.0 mm
10:40 AM 57.7°F14.3°C 55.1°F12.8°C 91% 1.2 mph SSW1.9 kmh SSW 1.6 mph2.6 kmh 30.04 in1017.3 mb 0.00 in0.0 mm 0.00 in0.0 mm 0.00 in0.0 mm
10:45 AM 57.7°F14.3°C 55.1°F12.8°C 91% 1.6 mph S2.6 kmh S 2.5 mph4.0 kmh 30.04 in1017.3 mb 0.00 in0.0 mm 0.00 in0.0 mm 0.00 in0.0 mm
10:50 AM 57.7°F14.3°C 55.1°F12.8°C 91% 2.0 mph S3.2 kmh S 2.5 mph4.0 kmh 30.04 in1017.3 mb 0.00 in0.0 mm 0.00 in0.0 mm 0.00 in0.0 mm
10:55 AM 57.9°F14.4°C 55.3°F12.9°C 91% 1.7 mph SSW2.7 kmh SSW 2.0 mph3.2 kmh 30.04 in1017.3 mb 0.00 in0.0 mm 0.00 in0.0 mm 0.00 in0.0 mm
11:00 AM 57.9°F14.4°C 55.3°F12.9°C 91% 1.8 mph SSW2.9 kmh SSW 2.9 mph4.7 kmh 30.04 in1017.3 mb 0.00 in0.0 mm 0.00 in0.0 mm 0.00 in0.0 mm
11:05 AM 58.1°F14.5°C 55.5°F13.1°C 91% 2.4 mph S3.9 kmh S 2.9 mph4.7 kmh 30.04 in1017.3 mb 0.00 in0.0 mm 0.00 in0.0 mm 0.00 in0.0 mm
11:10 AM 58.1°F14.5°C 55.5°F13.1°C 91% 1.7 mph S2.7 kmh S 2.9 mph4.7 kmh 30.04 in1017.3 mb 0.00 in0.0 mm 0.00 in0.0 mm 0.00 in0.0 mm
11:15 AM 58.1°F14.5°C 55.5°F13.1°C 91% 0.5 mph SW0.8 kmh SW 2.0 mph3.2 kmh 30.04 in1017.3 mb 0.00 in0.0 mm 0.00 in0.0 mm 0.00 in0.0 mm
11:20 AM 58.3°F14.6°C 55.7°F13.2°C 91% 0.5 mph S0.8 kmh S 1.8 mph2.9 kmh 30.03 in1016.9 mb 0.00 in0.0 mm 0.00 in0.0 mm 0.00 in0.0 mm
11:25 AM 58.6°F14.8°C 56.0°F13.3°C 91% 0.8 mph SSW1.3 kmh SSW 2.0 mph3.2 kmh 30.03 in1016.9 mb 0.00 in0.0 mm 0.00 in0.0 mm 0.00 in0.0 mm
11:30 AM 58.8°F14.9°C 56.2°F13.4°C 91% 1.6 mph SW2.6 kmh SW 2.0 mph3.2 kmh 30.03 in1016.9 mb 0.00 in0.0 mm 0.00 in0.0 mm 0.00 in0.0 mm
11:35 AM 59.2°F15.1°C 56.6°F13.7°C 91% 2.3 mph SW3.7 kmh SW 3.6 mph5.8 kmh 30.03 in1016.9 mb 0.00 in0.0 mm 0.00 in0.0 mm 0.00 in0.0 mm
11:40 AM 59.4°F15.2°C 56.7°F13.7°C 91% 2.2 mph SSW3.5 kmh SSW 3.6 mph5.8 kmh 30.03 in1016.9 mb 0.00 in0.0 mm 0.00 in0.0 mm 0.00 in0.0 mm
11:45 AM 59.9°F15.5°C 57.3°F14.1°C 91% 1.5 mph SSW2.4 kmh SSW 2.5 mph4.0 kmh 30.02 in1016.6 mb 0.00 in0.0 mm 0.00 in0.0 mm 0.00 in0.0 mm
11:50 AM 60.1°F15.6°C 57.4°F14.1°C 91% 0.9 mph S1.4 kmh S 2.5 mph4.0 kmh 30.02 in1016.6 mb 0.00 in0.0 mm 0.00 in0.0 mm 0.00 in0.0 mm
11:55 AM 60.4°F15.8°C 57.8°F14.3°C 91% 0.3 mph SSE0.5 kmh SSE 1.3 mph2.1 kmh 30.02 in1016.6 mb 0.00 in0.0 mm 0.00 in0.0 mm 0.00 in0.0 mm
12:00 PM 61.0°F16.1°C 58.3°F14.6°C 91% Calm Calm 2.0 mph3.2 kmh 30.02 in1016.6 mb 0.00 in0.0 mm 0.00 in0.0 mm 0.00 in0.0 mm
12:05 PM 61.3°F16.3°C 58.7°F14.8°C 91% 1.2 mph SE1.9 kmh SE 2.7 mph4.3 kmh 30.02 in1016.6 mb 0.00 in0.0 mm 0.00 in0.0 mm 0.00 in0.0 mm
12:10 PM 61.7°F16.5°C 59.0°F15.0°C 91% 3.3 mph SSE5.3 kmh SSE 4.7 mph7.6 kmh 30.01 in1016.3 mb 0.00 in0.0 mm 0.00 in0.0 mm 0.00 in0.0 mm
12:15 PM 62.2°F16.8°C 59.3°F15.2°C 90% 4.1 mph S6.6 kmh S 4.7 mph7.6 kmh 30.01 in1016.3 mb 0.00 in0.0 mm 0.00 in0.0 mm 0.00 in0.0 mm
12:20 PM 62.2°F16.8°C 59.3°F15.2°C 90% 3.7 mph S6.0 kmh S 4.7 mph7.6 kmh 30.01 in1016.3 mb 0.00 in0.0 mm 0.00 in0.0 mm 0.00 in0.0 mm
12:25 PM 63.0°F17.2°C 59.7°F15.4°C 89% 3.2 mph SSE5.1 kmh SSE 3.4 mph5.5 kmh 30.01 in1016.3 mb 0.00 in0.0 mm 0.00 in0.0 mm 0.00 in0.0 mm
12:30 PM 63.1°F17.3°C 59.8°F15.4°C 89% 2.4 mph SSW3.9 kmh SSW 3.4 mph5.5 kmh 30.00 in1015.9 mb 0.00 in0.0 mm 0.00 in0.0 mm 0.00 in0.0 mm
12:35 PM 63.3°F17.4°C 59.7°F15.4°C 88% 2.1 mph W3.4 kmh W 4.5 mph7.2 kmh 30.00 in1015.9 mb 0.00 in0.0 mm 0.00 in0.0 mm 0.00 in0.0 mm
12:40 PM 63.3°F17.4°C 59.7°F15.4°C 88% 3.5 mph SW5.6 kmh SW 4.5 mph7.2 kmh 30.00 in1015.9 mb 0.00 in0.0 mm 0.00 in0.0 mm 0.00 in0.0 mm
12:45 PM 63.7°F17.6°C 60.1°F15.6°C 88% 3.6 mph SSW5.8 kmh SSW 4.7 mph7.6 kmh 30.00 in1015.9 mb 0.00 in0.0 mm 0.00 in0.0 mm 0.00 in0.0 mm
12:50 PM 63.9°F17.7°C 59.9°F15.5°C 87% 2.2 mph SW3.5 kmh SW 4.7 mph7.6 kmh 29.99 in1015.6 mb 0.00 in0.0 mm 0.00 in0.0 mm 0.00 in0.0 mm
12:55 PM 63.9°F17.7°C 59.9°F15.5°C 87% 2.1 mph SSW3.4 kmh SSW 2.9 mph4.7 kmh 29.99 in1015.6 mb 0.00 in0.0 mm 0.00 in0.0 mm 0.00 in0.0 mm
01:00 PM 63.9°F17.7°C 59.9°F15.5°C 87% 2.5 mph S4.0 kmh S 2.9 mph4.7 kmh 29.99 in1015.6 mb 0.00 in0.0 mm 0.00 in0.0 mm 0.00 in0.0 mm
01:05 PM 63.9°F17.7°C 59.9°F15.5°C 87% 2.3 mph SW3.7 kmh SW 2.5 mph4.0 kmh 29.98 in1015.2 mb 0.00 in0.0 mm 0.00 in0.0 mm 0.00 in0.0 mm
01:10 PM 64.9°F18.3°C 61.0°F16.1°C 87% 2.1 mph SW3.4 kmh SW 2.5 mph4.0 kmh 29.98 in1015.2 mb 0.00 in0.0 mm 0.00 in0.0 mm 0.00 in0.0 mm
01:15 PM 65.5°F18.6°C 61.2°F16.2°C 86% 2.3 mph S3.7 kmh S 4.5 mph7.2 kmh 29.98 in1015.2 mb 0.00 in0.0 mm 0.00 in0.0 mm 0.00 in0.0 mm
01:20 PM 65.7°F18.7°C 61.4°F16.3°C 86% 3.2 mph S5.1 kmh S 4.5 mph7.2 kmh 29.98 in1015.2 mb 0.00 in0.0 mm 0.00 in0.0 mm 0.00 in0.0 mm
01:25 PM 66.0°F18.9°C 61.7°F16.5°C 86% 3.7 mph SSW6.0 kmh SSW 4.5 mph7.2 kmh 29.98 in1015.2 mb 0.00 in0.0 mm 0.00 in0.0 mm 0.00 in0.0 mm
01:30 PM 66.6°F19.2°C 61.9°F16.6°C 85% 2.6 mph SSW4.2 kmh SSW 4.3 mph6.9 kmh 29.98 in1015.2 mb 0.00 in0.0 mm 0.00 in0.0 mm 0.00 in0.0 mm
01:35 PM 66.7°F19.3°C 61.7°F16.5°C 84% 2.4 mph S3.9 kmh S 3.6 mph5.8 kmh 29.97 in1014.9 mb 0.00 in0.0 mm 0.00 in0.0 mm 0.00 in0.0 mm
01:40 PM 67.1°F19.5°C 62.1°F16.7°C 84% 2.4 mph S3.9 kmh S 3.6 mph5.8 kmh 29.97 in1014.9 mb 0.00 in0.0 mm 0.00 in0.0 mm 0.00 in0.0 mm
01:45 PM 67.6°F19.8°C 62.3°F16.8°C 83% 2.4 mph S3.9 kmh S 3.1 mph5.0 kmh 29.97 in1014.9 mb 0.00 in0.0 mm 0.00 in0.0 mm 0.00 in0.0 mm
01:50 PM 67.6°F19.8°C 62.3°F16.8°C 83% 2.1 mph S3.4 kmh S 3.1 mph5.0 kmh 29.97 in1014.9 mb 0.00 in0.0 mm 0.00 in0.0 mm 0.00 in0.0 mm
01:55 PM 67.8°F19.9°C 62.5°F16.9°C 83% 1.9 mph S3.1 kmh S 3.1 mph5.0 kmh 29.97 in1014.9 mb 0.00 in0.0 mm 0.00 in0.0 mm 0.00 in0.0 mm
02:00 PM 68.2°F20.1°C 62.8°F17.1°C 83% 2.7 mph SSW4.3 kmh SSW 3.1 mph5.0 kmh 29.96 in1014.6 mb 0.00 in0.0 mm 0.00 in0.0 mm 0.00 in0.0 mm
02:05 PM 68.5°F20.3°C 63.2°F17.3°C 83% 2.8 mph SW4.5 kmh SW 2.9 mph4.7 kmh 29.96 in1014.6 mb 0.00 in0.0 mm 0.00 in0.0 mm 0.00 in0.0 mm
02:10 PM 68.5°F20.3°C 63.2°F17.3°C 83% 2.6 mph SW4.2 kmh SW 2.9 mph4.7 kmh 29.96 in1014.6 mb 0.00 in0.0 mm 0.00 in0.0 mm 0.00 in0.0 mm
02:15 PM 69.1°F20.6°C 63.4°F17.4°C 82% 2.4 mph SW3.9 kmh SW 4.9 mph7.9 kmh 29.96 in1014.6 mb 0.00 in0.0 mm 0.00 in0.0 mm 0.00 in0.0 mm
02:20 PM 69.1°F20.6°C 63.4°F17.4°C 82% 2.3 mph SSW3.7 kmh SSW 4.9 mph7.9 kmh 29.95 in1014.2 mb 0.00 in0.0 mm 0.00 in0.0 mm 0.00 in0.0 mm
02:25 PM 69.1°F20.6°C 63.4°F17.4°C 82% 3.1 mph SW5.0 kmh SW 3.8 mph6.1 kmh 29.96 in1014.6 mb 0.00 in0.0 mm 0.00 in0.0 mm 0.00 in0.0 mm
02:30 PM 69.4°F20.8°C 63.0°F17.2°C 80% 3.6 mph SW5.8 kmh SW 3.8 mph6.1 kmh 29.95 in1014.2 mb 0.00 in0.0 mm 0.00 in0.0 mm 0.00 in0.0 mm
02:35 PM 69.4°F20.8°C 63.0°F17.2°C 80% 3.5 mph SSW5.6 kmh SSW 3.8 mph6.1 kmh 29.95 in1014.2 mb 0.00 in0.0 mm 0.00 in0.0 mm 0.00 in0.0 mm
02:40 PM 69.4°F20.8°C 63.0°F17.2°C 80% 3.6 mph SSW5.8 kmh SSW 3.6 mph5.8 kmh 29.95 in1014.2 mb 0.00 in0.0 mm 0.00 in0.0 mm 0.00 in0.0 mm
02:45 PM 68.9°F20.5°C 62.5°F16.9°C 80% 3.6 mph SSW5.8 kmh SSW 5.6 mph9.0 kmh 29.94 in1013.9 mb 0.00 in0.0 mm 0.00 in0.0 mm 0.00 in0.0 mm
02:50 PM 68.7°F20.4°C 62.3°F16.8°C 80% 4.5 mph SSW7.2 kmh SSW 5.6 mph9.0 kmh 29.94 in1013.9 mb 0.00 in0.0 mm 0.00 in0.0 mm 0.00 in0.0 mm
02:55 PM 68.7°F20.4°C 62.3°F16.8°C 80% 4.2 mph S6.8 kmh S 5.6 mph9.0 kmh 29.94 in1013.9 mb 0.00 in0.0 mm 0.00 in0.0 mm 0.00 in0.0 mm
03:00 PM 68.7°F20.4°C 62.3°F16.8°C 80% 2.9 mph S4.7 kmh S 3.8 mph6.1 kmh 29.94 in1013.9 mb 0.00 in0.0 mm 0.00 in0.0 mm 0.00 in0.0 mm
03:05 PM 68.7°F20.4°C 62.3°F16.8°C 80% 3.3 mph S5.3 kmh S 3.8 mph6.1 kmh 29.94 in1013.9 mb 0.00 in0.0 mm 0.00 in0.0 mm 0.00 in0.0 mm
03:10 PM 68.7°F20.4°C 62.3°F16.8°C 80% 3.8 mph SSW6.1 kmh SSW 3.8 mph6.1 kmh 29.94 in1013.9 mb 0.00 in0.0 mm 0.00 in0.0 mm 0.00 in0.0 mm
03:15 PM 69.3°F20.7°C 62.8°F17.1°C 80% 3.5 mph SSW5.6 kmh SSW 4.0 mph6.4 kmh 29.94 in1013.9 mb 0.00 in0.0 mm 0.00 in0.0 mm 0.00 in0.0 mm
03:20 PM 69.4°F20.8°C 62.6°F17.0°C 79% 2.7 mph SSW4.3 kmh SSW 4.0 mph6.4 kmh 29.94 in1013.9 mb 0.00 in0.0 mm 0.00 in0.0 mm 0.00 in0.0 mm
03:25 PM 69.4°F20.8°C 62.6°F17.0°C 79% 1.9 mph S3.1 kmh S 2.2 mph3.5 kmh 29.93 in1013.5 mb 0.00 in0.0 mm 0.00 in0.0 mm 0.00 in0.0 mm
03:30 PM 69.4°F20.8°C 62.6°F17.0°C 79% 1.4 mph S2.3 kmh S 2.2 mph3.5 kmh 29.93 in1013.5 mb 0.00 in0.0 mm 0.00 in0.0 mm 0.00 in0.0 mm
03:35 PM 69.4°F20.8°C 62.6°F17.0°C 79% 1.5 mph SSW2.4 kmh SSW 2.2 mph3.5 kmh 29.93 in1013.5 mb 0.00 in0.0 mm 0.00 in0.0 mm 0.00 in0.0 mm
03:40 PM 69.4°F20.8°C 62.6°F17.0°C 79% 1.4 mph SSW2.3 kmh SSW 2.5 mph4.0 kmh 29.93 in1013.5 mb 0.00 in0.0 mm 0.00 in0.0 mm 0.00 in0.0 mm
03:45 PM 69.4°F20.8°C 62.6°F17.0°C 79% 1.2 mph SSW1.9 kmh SSW 3.4 mph5.5 kmh 29.93 in1013.5 mb 0.00 in0.0 mm 0.00 in0.0 mm 0.00 in0.0 mm
03:50 PM 69.3°F20.7°C 62.5°F16.9°C 79% 2.3 mph S3.7 kmh S 3.4 mph5.5 kmh 29.93 in1013.5 mb 0.00 in0.0 mm 0.00 in0.0 mm 0.00 in0.0 mm
03:55 PM 69.1°F20.6°C 62.3°F16.8°C 79% 2.4 mph S3.9 kmh S 3.4 mph5.5 kmh 29.93 in1013.5 mb 0.00 in0.0 mm 0.00 in0.0 mm 0.00 in0.0 mm
04:00 PM 69.1°F20.6°C 62.3°F16.8°C 79% 2.1 mph S3.4 kmh S 2.9 mph4.7 kmh 29.92 in1013.2 mb 0.00 in0.0 mm 0.00 in0.0 mm 0.00 in0.0 mm
04:05 PM 69.1°F20.6°C 62.3°F16.8°C 79% 2.6 mph S4.2 kmh S 2.9 mph4.7 kmh 29.92 in1013.2 mb 0.00 in0.0 mm 0.00 in0.0 mm 0.00 in0.0 mm
04:10 PM 68.9°F20.5°C 62.1°F16.7°C 79% 2.2 mph S3.5 kmh S 2.9 mph4.7 kmh 29.92 in1013.2 mb 0.00 in0.0 mm 0.00 in0.0 mm 0.00 in0.0 mm
04:15 PM 68.7°F20.4°C 61.9°F16.6°C 79% 2.2 mph S3.5 kmh S 3.1 mph5.0 kmh 29.92 in1013.2 mb 0.00 in0.0 mm 0.00 in0.0 mm 0.00 in0.0 mm
04:20 PM 68.7°F20.4°C 62.3°F16.8°C 80% 2.6 mph SSE4.2 kmh SSE 3.1 mph5.0 kmh 29.91 in1012.9 mb 0.00 in0.0 mm 0.00 in0.0 mm 0.00 in0.0 mm
04:25 PM 68.7°F20.4°C 62.3°F16.8°C 80% 2.5 mph S4.0 kmh S 2.7 mph4.3 kmh 29.92 in1013.2 mb 0.00 in0.0 mm 0.00 in0.0 mm 0.00 in0.0 mm
04:30 PM 68.7°F20.4°C 62.3°F16.8°C 80% 2.5 mph SW4.0 kmh SW 3.1 mph5.0 kmh 29.91 in1012.9 mb 0.00 in0.0 mm 0.00 in0.0 mm 0.00 in0.0 mm
04:35 PM 68.7°F20.4°C 62.3°F16.8°C 80% 1.4 mph WSW2.3 kmh WSW 3.1 mph5.0 kmh 29.91 in1012.9 mb 0.00 in0.0 mm 0.00 in0.0 mm 0.00 in0.0 mm
04:40 PM 68.9°F20.5°C 62.5°F16.9°C 80% 1.1 mph SSW1.8 kmh SSW 2.5 mph4.0 kmh 29.91 in1012.9 mb 0.00 in0.0 mm 0.00 in0.0 mm 0.00 in0.0 mm
04:45 PM 68.7°F20.4°C 62.3°F16.8°C 80% 2.0 mph SW3.2 kmh SW 2.5 mph4.0 kmh 29.91 in1012.9 mb 0.00 in0.0 mm 0.00 in0.0 mm 0.00 in0.0 mm
04:50 PM 68.7°F20.4°C 62.3°F16.8°C 80% 2.0 mph WSW3.2 kmh WSW 2.0 mph3.2 kmh 29.91 in1012.9 mb 0.00 in0.0 mm 0.00 in0.0 mm 0.00 in0.0 mm
04:55 PM 68.7°F20.4°C 62.3°F16.8°C 80% 2.0 mph W3.2 kmh W 2.0 mph3.2 kmh 29.91 in1012.9 mb 0.00 in0.0 mm 0.00 in0.0 mm 0.00 in0.0 mm
05:00 PM 68.7°F20.4°C 62.3°F16.8°C 80% 2.0 mph W3.2 kmh W 2.0 mph3.2 kmh 29.92 in1013.2 mb 0.00 in0.0 mm 0.00 in0.0 mm 0.00 in0.0 mm
05:05 PM 68.5°F20.3°C 62.1°F16.7°C 80% 2.0 mph W3.2 kmh W 2.0 mph3.2 kmh 29.92 in1013.2 mb 0.00 in0.0 mm 0.00 in0.0 mm 0.00 in0.0 mm
05:10 PM 68.5°F20.3°C 62.1°F16.7°C 80% 2.0 mph W3.2 kmh W 2.0 mph3.2 kmh 29.92 in1013.2 mb 0.00 in0.0 mm 0.00 in0.0 mm 0.00 in0.0 mm
05:15 PM 68.5°F20.3°C 62.1°F16.7°C 80% 2.1 mph W3.4 kmh W 2.2 mph3.5 kmh 29.92 in1013.2 mb 0.00 in0.0 mm 0.00 in0.0 mm 0.00 in0.0 mm
05:20 PM 68.5°F20.3°C 62.1°F16.7°C 80% 2.2 mph WNW3.5 kmh WNW 2.2 mph3.5 kmh 29.91 in1012.9 mb 0.00 in0.0 mm 0.00 in0.0 mm 0.00 in0.0 mm
05:25 PM 67.6°F19.8°C 61.2°F16.2°C 80% 2.3 mph W3.7 kmh W 2.7 mph4.3 kmh 29.91 in1012.9 mb 0.00 in0.0 mm 0.00 in0.0 mm 0.00 in0.0 mm
05:30 PM 67.3°F19.6°C 60.9°F16.1°C 80% 2.9 mph W4.7 kmh W 5.8 mph9.3 kmh 29.91 in1012.9 mb 0.00 in0.0 mm 0.00 in0.0 mm 0.00 in0.0 mm
05:35 PM 66.9°F19.4°C 60.2°F15.7°C 79% 4.8 mph WSW7.7 kmh WSW 5.8 mph9.3 kmh 29.91 in1012.9 mb 0.00 in0.0 mm 0.00 in0.0 mm 0.00 in0.0 mm
05:40 PM 66.4°F19.1°C 59.7°F15.4°C 79% 5.7 mph WSW9.2 kmh WSW 5.8 mph9.3 kmh 29.91 in1012.9 mb 0.00 in0.0 mm 0.00 in0.0 mm 0.00 in0.0 mm
05:45 PM 66.0°F18.9°C 59.7°F15.4°C 80% 4.5 mph W7.2 kmh W 5.8 mph9.3 kmh 29.91 in1012.9 mb 0.00 in0.0 mm 0.00 in0.0 mm 0.00 in0.0 mm
05:50 PM 65.8°F18.8°C 59.5°F15.3°C 80% 4.1 mph WNW6.6 kmh WNW 5.4 mph8.7 kmh 29.91 in1012.9 mb 0.00 in0.0 mm 0.00 in0.0 mm 0.00 in0.0 mm
05:55 PM 65.7°F18.7°C 59.0°F15.0°C 79% 5.3 mph W8.5 kmh W 7.4 mph11.9 kmh 29.91 in1012.9 mb 0.00 in0.0 mm 0.00 in0.0 mm 0.00 in0.0 mm
06:00 PM 65.7°F18.7°C 59.0°F15.0°C 79% 5.2 mph W8.4 kmh W 7.4 mph11.9 kmh 29.91 in1012.9 mb 0.00 in0.0 mm 0.00 in0.0 mm 0.00 in0.0 mm
06:05 PM 65.7°F18.7°C 59.0°F15.0°C 79% 4.5 mph WNW7.2 kmh WNW 4.5 mph7.2 kmh 29.91 in1012.9 mb 0.00 in0.0 mm 0.00 in0.0 mm 0.00 in0.0 mm
06:10 PM 64.9°F18.3°C 58.6°F14.8°C 80% 4.0 mph WNW6.4 kmh WNW 4.5 mph7.2 kmh 29.91 in1012.9 mb 0.00 in0.0 mm 0.00 in0.0 mm 0.00 in0.0 mm
06:15 PM 64.8°F18.2°C 58.8°F14.9°C 81% 3.8 mph W6.1 kmh W 6.9 mph11.1 kmh 29.91 in1012.9 mb 0.00 in0.0 mm 0.00 in0.0 mm 0.00 in0.0 mm
06:20 PM 64.6°F18.1°C 58.6°F14.8°C 81% 3.7 mph W6.0 kmh W 6.9 mph11.1 kmh 29.91 in1012.9 mb 0.00 in0.0 mm 0.00 in0.0 mm 0.00 in0.0 mm
06:25 PM 64.2°F17.9°C 58.3°F14.6°C 81% 3.4 mph W5.5 kmh W 4.0 mph6.4 kmh 29.91 in1012.9 mb 0.00 in0.0 mm 0.00 in0.0 mm 0.00 in0.0 mm
06:30 PM 64.2°F17.9°C 58.3°F14.6°C 81% 2.8 mph WNW4.5 kmh WNW 4.0 mph6.4 kmh 29.90 in1012.5 mb 0.00 in0.0 mm 0.00 in0.0 mm 0.00 in0.0 mm
06:35 PM 64.0°F17.8°C 58.1°F14.5°C 81% 2.2 mph WNW3.5 kmh WNW 2.5 mph4.0 kmh 29.90 in1012.5 mb 0.00 in0.0 mm 0.00 in0.0 mm 0.00 in0.0 mm
06:40 PM 63.7°F17.6°C 57.7°F14.3°C 81% 3.1 mph W5.0 kmh W 5.8 mph9.3 kmh 29.91 in1012.9 mb 0.00 in0.0 mm 0.00 in0.0 mm 0.00 in0.0 mm
06:45 PM 63.7°F17.6°C 58.1°F14.5°C 82% 4.5 mph WNW7.2 kmh WNW 5.8 mph9.3 kmh 29.91 in1012.9 mb 0.00 in0.0 mm 0.00 in0.0 mm 0.00 in0.0 mm
06:50 PM 63.5°F17.5°C 57.9°F14.4°C 82% 4.6 mph WNW7.4 kmh WNW 5.8 mph9.3 kmh 29.91 in1012.9 mb 0.00 in0.0 mm 0.00 in0.0 mm 0.00 in0.0 mm
06:55 PM 63.3°F17.4°C 57.7°F14.3°C 82% 4.5 mph W7.2 kmh W 8.7 mph14.0 kmh 29.91 in1012.9 mb 0.00 in0.0 mm 0.00 in0.0 mm 0.00 in0.0 mm
07:00 PM 63.3°F17.4°C 57.7°F14.3°C 82% 3.2 mph WSW5.1 kmh WSW 8.7 mph14.0 kmh 29.91 in1012.9 mb 0.00 in0.0 mm 0.00 in0.0 mm 0.00 in0.0 mm
07:05 PM 63.1°F17.3°C 57.6°F14.2°C 82% 3.3 mph SW5.3 kmh SW 6.7 mph10.8 kmh 29.91 in1012.9 mb 0.00 in0.0 mm 0.00 in0.0 mm 0.00 in0.0 mm
07:10 PM 62.8°F17.1°C 57.2°F14.0°C 82% 4.7 mph WSW7.6 kmh WSW 7.8 mph12.6 kmh 29.90 in1012.5 mb 0.00 in0.0 mm 0.00 in0.0 mm 0.00 in0.0 mm
07:15 PM 62.8°F17.1°C 57.5°F14.2°C 83% 3.1 mph WSW5.0 kmh WSW 7.8 mph12.6 kmh 29.91 in1012.9 mb 0.00 in0.0 mm 0.00 in0.0 mm 0.00 in0.0 mm
07:20 PM 62.6°F17.0°C 57.4°F14.1°C 83% 2.0 mph SW3.2 kmh SW 2.2 mph3.5 kmh 29.91 in1012.9 mb 0.00 in0.0 mm 0.00 in0.0 mm 0.00 in0.0 mm
07:25 PM 62.4°F16.9°C 57.2°F14.0°C 83% 2.0 mph SW3.2 kmh SW 2.2 mph3.5 kmh 29.91 in1012.9 mb 0.00 in0.0 mm 0.00 in0.0 mm 0.00 in0.0 mm
07:30 PM 62.2°F16.8°C 57.0°F13.9°C 83% 1.9 mph SW3.1 kmh SW 2.2 mph3.5 kmh 29.91 in1012.9 mb 0.00 in0.0 mm 0.00 in0.0 mm 0.00 in0.0 mm
07:35 PM 62.2°F16.8°C 57.0°F13.9°C 83% 2.0 mph SW3.2 kmh SW 2.2 mph3.5 kmh 29.90 in1012.5 mb 0.00 in0.0 mm 0.00 in0.0 mm 0.00 in0.0 mm
07:37 PM 62.2°F16.8°C 57.0°F13.9°C 83% 1.9 mph SW3.1 kmh SW 2.5 mph4.0 kmh 29.91 in1012.9 mb 0.00 in0.0 mm 0.00 in0.0 mm 0.00 in0.0 mm
08:37 PM 61.3°F16.3°C 56.8°F13.8°C 85% 2.5 mph WNW4.0 kmh WNW 2.5 mph4.0 kmh 29.90 in1012.5 mb 0.00 in0.0 mm 0.00 in0.0 mm 0.00 in0.0 mm
09:00 PM 61.3°F16.3°C 56.5°F13.6°C 84% 9.0 mph W14.5 kmh W 12.5 mph20.1 kmh 29.90 in1012.5 mb 0.00 in0.0 mm 0.00 in0.0 mm 0.00 in0.0 mm
09:05 PM 61.3°F16.3°C 56.5°F13.6°C 84% 6.6 mph W10.6 kmh W 12.5 mph20.1 kmh 29.89 in1012.2 mb 0.00 in0.0 mm 0.00 in0.0 mm 0.00 in0.0 mm
09:10 PM 61.3°F16.3°C 56.5°F13.6°C 84% 5.8 mph WSW9.3 kmh WSW 12.5 mph20.1 kmh 29.89 in1012.2 mb 0.00 in0.0 mm 0.00 in0.0 mm 0.00 in0.0 mm
09:15 PM 61.3°F16.3°C 56.5°F13.6°C 84% 6.7 mph WSW10.8 kmh WSW 6.7 mph10.8 kmh 29.89 in1012.2 mb 0.00 in0.0 mm 0.00 in0.0 mm 0.00 in0.0 mm
09:20 PM 61.0°F16.1°C 56.1°F13.4°C 84% 6.7 mph WSW10.8 kmh WSW 6.7 mph10.8 kmh 29.89 in1012.2 mb 0.00 in0.0 mm 0.00 in0.0 mm 0.00 in0.0 mm
09:25 PM 61.0°F16.1°C 56.1°F13.4°C 84% 5.2 mph WSW8.4 kmh WSW 6.7 mph10.8 kmh 29.89 in1012.2 mb 0.00 in0.0 mm 0.00 in0.0 mm 0.00 in0.0 mm
09:30 PM 61.0°F16.1°C 56.1°F13.4°C 84% 3.5 mph W5.6 kmh W 5.1 mph8.2 kmh 29.89 in1012.2 mb 0.00 in0.0 mm 0.00 in0.0 mm 0.00 in0.0 mm
09:35 PM 61.0°F16.1°C 56.1°F13.4°C 84% 4.2 mph W6.8 kmh W 5.4 mph8.7 kmh 29.89 in1012.2 mb 0.00 in0.0 mm 0.00 in0.0 mm 0.00 in0.0 mm
09:40 PM 61.0°F16.1°C 56.1°F13.4°C 84% 4.0 mph W6.4 kmh W 5.4 mph8.7 kmh 29.89 in1012.2 mb 0.00 in0.0 mm 0.00 in0.0 mm 0.00 in0.0 mm
09:45 PM 61.0°F16.1°C 56.1°F13.4°C 84% 2.9 mph WNW4.7 kmh WNW 3.1 mph5.0 kmh 29.89 in1012.2 mb 0.00 in0.0 mm 0.00 in0.0 mm 0.00 in0.0 mm
09:50 PM 60.6°F15.9°C 55.8°F13.2°C 84% 4.0 mph W6.4 kmh W 7.6 mph12.2 kmh 29.89 in1012.2 mb 0.00 in0.0 mm 0.00 in0.0 mm 0.00 in0.0 mm
09:55 PM 60.6°F15.9°C 55.8°F13.2°C 84% 5.6 mph WNW9.0 kmh WNW 7.6 mph12.2 kmh 29.89 in1012.2 mb 0.00 in0.0 mm 0.00 in0.0 mm 0.00 in0.0 mm
10:00 PM 60.6°F15.9°C 55.8°F13.2°C 84% 5.6 mph WNW9.0 kmh WNW 7.6 mph12.2 kmh 29.88 in1011.9 mb 0.00 in0.0 mm 0.00 in0.0 mm 0.00 in0.0 mm
10:05 PM 60.6°F15.9°C 55.8°F13.2°C 84% 5.0 mph WNW8.0 kmh WNW 6.0 mph9.7 kmh 29.88 in1011.9 mb 0.00 in0.0 mm 0.00 in0.0 mm 0.00 in0.0 mm
10:10 PM 60.6°F15.9°C 55.8°F13.2°C 84% 3.8 mph W6.1 kmh W 6.0 mph9.7 kmh 29.88 in1011.9 mb 0.00 in0.0 mm 0.00 in0.0 mm 0.00 in0.0 mm
10:15 PM 60.6°F15.9°C 55.8°F13.2°C 84% 2.5 mph WSW4.0 kmh WSW 2.7 mph4.3 kmh 29.88 in1011.9 mb 0.00 in0.0 mm 0.00 in0.0 mm 0.00 in0.0 mm
10:20 PM 60.4°F15.8°C 55.6°F13.1°C 84% 2.6 mph W4.2 kmh W 3.1 mph5.0 kmh 29.88 in1011.9 mb 0.00 in0.0 mm 0.00 in0.0 mm 0.00 in0.0 mm
10:25 PM 60.4°F15.8°C 55.6°F13.1°C 84% 3.0 mph NW4.8 kmh NW 3.1 mph5.0 kmh 29.88 in1011.9 mb 0.00 in0.0 mm 0.00 in0.0 mm 0.00 in0.0 mm
10:30 PM 60.4°F15.8°C 55.6°F13.1°C 84% 3.0 mph N4.8 kmh N 3.1 mph5.0 kmh 29.88 in1011.9 mb 0.00 in0.0 mm 0.00 in0.0 mm 0.00 in0.0 mm
10:35 PM 60.4°F15.8°C 55.6°F13.1°C 84% 4.4 mph NW7.1 kmh NW 7.6 mph12.2 kmh 29.88 in1011.9 mb 0.00 in0.0 mm 0.00 in0.0 mm 0.00 in0.0 mm
10:40 PM 60.6°F15.9°C 55.8°F13.2°C 84% 4.9 mph W7.9 kmh W 7.6 mph12.2 kmh 29.88 in1011.9 mb 0.00 in0.0 mm 0.00 in0.0 mm 0.00 in0.0 mm
10:45 PM 60.6°F15.9°C 55.8°F13.2°C 84% 4.3 mph WNW6.9 kmh WNW 5.6 mph9.0 kmh 29.88 in1011.9 mb 0.00 in0.0 mm 0.00 in0.0 mm 0.00 in0.0 mm
10:50 PM 60.6°F15.9°C 55.8°F13.2°C 84% 4.9 mph WNW7.9 kmh WNW 5.6 mph9.0 kmh 29.87 in1011.5 mb 0.00 in0.0 mm 0.00 in0.0 mm 0.00 in0.0 mm
10:55 PM 60.6°F15.9°C 55.8°F13.2°C 84% 5.7 mph W9.2 kmh W 7.6 mph12.2 kmh 29.87 in1011.5 mb 0.00 in0.0 mm 0.00 in0.0 mm 0.00 in0.0 mm
11:00 PM 60.6°F15.9°C 55.4°F13.0°C 83% 6.3 mph W10.1 kmh W 7.6 mph12.2 kmh 29.87 in1011.5 mb 0.00 in0.0 mm 0.00 in0.0 mm 0.00 in0.0 mm
11:05 PM 60.6°F15.9°C 55.4°F13.0°C 83% 6.2 mph W10.0 kmh W 8.9 mph14.3 kmh 29.87 in1011.5 mb 0.00 in0.0 mm 0.00 in0.0 mm 0.00 in0.0 mm
11:10 PM 60.8°F16.0°C 55.6°F13.1°C 83% 6.3 mph WNW10.1 kmh WNW 8.9 mph14.3 kmh 29.87 in1011.5 mb 0.00 in0.0 mm 0.00 in0.0 mm 0.00 in0.0 mm
11:15 PM 60.6°F15.9°C 55.4°F13.0°C 83% 5.1 mph W8.2 kmh W 8.9 mph14.3 kmh 29.87 in1011.5 mb 0.00 in0.0 mm 0.00 in0.0 mm 0.00 in0.0 mm
11:20 PM 60.6°F15.9°C 55.4°F13.0°C 83% 5.5 mph W8.9 kmh W 13.2 mph21.2 kmh 29.87 in1011.5 mb 0.00 in0.0 mm 0.00 in0.0 mm 0.00 in0.0 mm
11:25 PM 60.6°F15.9°C 55.4°F13.0°C 83% 7.5 mph WNW12.1 kmh WNW 13.2 mph21.2 kmh 29.87 in1011.5 mb 0.00 in0.0 mm 0.00 in0.0 mm 0.00 in0.0 mm
11:30 PM 60.8°F16.0°C 55.3°F12.9°C 82% 7.5 mph WNW12.1 kmh WNW 10.3 mph16.6 kmh 29.87 in1011.5 mb 0.00 in0.0 mm 0.00 in0.0 mm 0.00 in0.0 mm
11:35 PM 61.0°F16.1°C 55.4°F13.0°C 82% 6.2 mph W10.0 kmh W 10.3 mph16.6 kmh 29.86 in1011.2 mb 0.00 in0.0 mm 0.00 in0.0 mm 0.00 in0.0 mm
11:40 PM 61.0°F16.1°C 55.1°F12.8°C 81% 7.8 mph NW12.6 kmh NW 11.9 mph19.2 kmh 29.86 in1011.2 mb 0.00 in0.0 mm 0.00 in0.0 mm 0.00 in0.0 mm
11:45 PM 61.0°F16.1°C 55.1°F12.8°C 81% 11.1 mph NW17.9 kmh NW 14.5 mph23.3 kmh 29.86 in1011.2 mb 0.00 in0.0 mm 0.00 in0.0 mm 0.00 in0.0 mm
11:50 PM 61.0°F16.1°C 55.1°F12.8°C 81% 8.9 mph WNW14.3 kmh WNW 14.5 mph23.3 kmh 29.86 in1011.2 mb 0.00 in0.0 mm 0.00 in0.0 mm 0.00 in0.0 mm
11:55 PM 61.2°F16.2°C 55.3°F12.9°C 81% 6.5 mph WNW10.5 kmh WNW 6.9 mph11.1 kmh 29.86 in1011.2 mb 0.00 in0.0 mm 0.00 in0.0 mm 0.00 in0.0 mm